createdAt,value
2023-03-23T15:57:56.389Z,100281.47
2023-03-23T16:00:26.248Z,100296.53
2023-03-23T16:03:00.221Z,100284.75
2023-03-23T16:05:28.336Z,100256.00
2023-03-23T16:07:55.956Z,100294.66
2023-03-23T16:10:25.850Z,100286.19
2023-03-23T16:12:52.811Z,100282.22
2023-03-23T16:15:20.174Z,100285.22
2023-03-23T16:17:47.924Z,100276.88
2023-03-23T16:20:20.433Z,100269.75
2023-03-23T16:22:48.248Z,100269.28
2023-03-23T16:25:16.208Z,100255.06
2023-03-23T16:27:44.080Z,100283.00
2023-03-23T16:30:20.148Z,100290.94
2023-03-23T16:32:47.652Z,100273.41
2023-03-23T16:35:15.662Z,100298.06
2023-03-23T16:37:48.029Z,100297.59
2023-03-23T16:40:20.098Z,100287.00
2023-03-23T16:42:47.638Z,100288.19
2023-03-23T16:45:15.579Z,100287.75
2023-03-23T16:47:46.283Z,100286.16
2023-03-23T16:50:17.414Z,100281.38
2023-03-23T16:52:47.776Z,100263.19
2023-03-23T16:55:19.209Z,100256.88
2023-03-23T16:57:46.189Z,100262.53
2023-03-23T17:00:16.533Z,100270.59
2023-03-23T17:02:44.041Z,100274.84
2023-03-23T17:05:11.961Z,100277.75
2023-03-23T17:07:40.349Z,100283.41
2023-03-23T17:10:09.777Z,100265.59
2023-03-23T17:12:37.301Z,100279.78
2023-03-23T17:15:05.464Z,100268.00
2023-03-23T17:17:32.971Z,100268.25
2023-03-23T17:20:00.561Z,100272.78
2023-03-23T17:22:27.855Z,100270.94
2023-03-23T17:24:54.867Z,100267.75
2023-03-23T17:27:25.477Z,100284.81
2023-03-23T17:29:52.285Z,100289.41
2023-03-23T17:32:20.955Z,100294.50
2023-03-23T17:34:47.886Z,100309.44
2023-03-23T17:37:14.728Z,100308.47
2023-03-23T17:39:43.241Z,100311.78
2023-03-23T17:42:10.659Z,100321.47
2023-03-23T17:44:37.809Z,100325.41
2023-03-23T17:47:05.105Z,100324.44
2023-03-23T17:49:32.366Z,100334.16
2023-03-23T17:52:00.659Z,100335.78
2023-03-23T17:54:29.782Z,100331.00
2023-03-23T17:56:58.864Z,100343.13
2023-03-23T17:59:28.545Z,100342.78
2023-03-23T18:01:55.544Z,100338.84
2023-03-23T18:04:23.021Z,100345.88
2023-03-23T18:06:49.902Z,100337.63
2023-03-23T18:09:16.784Z,100340.41
2023-03-23T18:11:43.699Z,100335.88
2023-03-23T18:14:10.936Z,100342.59
2023-03-23T18:16:38.031Z,100351.44
2023-03-23T18:19:05.164Z,100340.31
2023-03-23T18:21:32.236Z,100345.22
2023-03-23T18:24:00.154Z,100345.22
2023-03-23T18:26:28.735Z,100351.75
2023-03-23T18:28:56.414Z,100336.88
2023-03-23T18:31:23.593Z,100344.88
2023-03-23T18:33:54.739Z,100349.44
2023-03-23T18:36:25.114Z,100350.94
2023-03-23T18:38:56.960Z,100345.53
2023-03-23T18:41:24.707Z,100348.31
2023-03-23T18:43:51.981Z,100350.44
2023-03-23T18:46:19.297Z,100349.94
2023-03-23T18:48:46.222Z,100361.88
2023-03-23T18:51:13.193Z,100356.00
2023-03-23T18:53:40.894Z,100359.44
2023-03-23T18:56:21.014Z,100355.22
2023-03-23T18:58:48.143Z,100360.09
2023-03-23T19:01:17.523Z,100350.28
2023-03-23T19:03:45.716Z,100352.72
2023-03-23T19:06:24.958Z,100360.59
2023-03-23T19:08:52.518Z,100333.94
2023-03-23T19:11:21.081Z,100366.47
2023-03-23T19:14:00.498Z,100356.66
2023-03-23T19:16:29.713Z,100356.31
2023-03-23T19:18:56.565Z,100354.88
2023-03-23T19:21:25.778Z,100353.22
2023-03-23T19:23:54.540Z,100351.09
2023-03-23T19:26:29.263Z,100358.78
2023-03-23T19:31:26.149Z,100349.97
2023-03-23T19:33:53.731Z,100330.00
2023-03-23T19:36:22.865Z,100343.91
2023-03-23T19:38:50.843Z,100363.69
2023-03-23T19:41:19.299Z,100358.31
2023-03-23T19:43:46.727Z,100359.63
2023-03-23T19:46:15.046Z,100359.78
2023-03-23T19:48:42.715Z,100356.84
2023-03-23T19:51:12.201Z,100355.69
2023-03-23T19:53:39.804Z,100328.38
2023-03-23T19:56:16.426Z,100342.09
2023-03-23T19:58:43.569Z,100328.06
2023-03-23T20:01:11.359Z,100334.75
2023-03-23T20:03:39.497Z,100329.03
2023-03-23T20:06:11.255Z,100322.66
2023-03-23T20:08:43.569Z,100329.19
2023-03-23T20:11:13.479Z,100318.75
2023-03-23T20:13:41.740Z,100312.34
2023-03-23T20:16:09.925Z,100316.78
2023-03-23T20:18:38.302Z,100320.03
2023-03-23T20:21:11.088Z,100318.41
2023-03-23T20:23:39.484Z,100324.94
2023-03-23T20:26:11.704Z,100323.66
2023-03-23T20:28:40.719Z,100315.97
2023-03-23T20:31:19.907Z,100315.47
2023-03-23T20:34:00.096Z,100301.41
2023-03-23T20:36:36.401Z,100305.66
2023-03-23T20:39:14.340Z,100308.59
2023-03-23T20:41:43.874Z,100317.94
2023-03-23T20:44:14.366Z,100317.09
2023-03-23T20:46:42.758Z,100322.47
2023-03-23T20:49:10.243Z,100316.09
2023-03-23T20:51:37.542Z,100306.13
2023-03-23T20:54:06.233Z,100297.44
2023-03-23T20:56:34.631Z,100307.25
2023-03-23T20:59:02.072Z,100279.97
2023-03-23T21:01:29.659Z,100304.66
2023-03-23T21:03:58.051Z,100287.97
2023-03-23T21:06:28.598Z,100292.22
2023-03-23T21:08:57.278Z,100296.31
2023-03-23T21:11:26.169Z,100294.03
2023-03-23T21:13:53.531Z,100298.13
2023-03-23T21:16:20.827Z,100303.84
2023-03-23T21:18:48.001Z,100264.47
2023-03-23T21:21:18.513Z,100295.00
2023-03-23T21:23:47.592Z,100295.19
2023-03-23T21:26:17.195Z,100290.94
2023-03-23T21:28:50.896Z,100288.16
2023-03-23T21:31:18.469Z,100285.38
2023-03-23T21:33:45.704Z,100237.47
2023-03-23T21:36:12.696Z,100278.31
2023-03-23T21:38:40.097Z,100274.56
2023-03-23T21:41:13.447Z,100275.03
2023-03-23T21:43:40.897Z,100234.03
2023-03-23T21:46:09.836Z,100265.88
2023-03-23T21:48:38.889Z,100266.34
2023-03-23T21:51:12.590Z,100265.34
2023-03-23T21:53:42.334Z,100254.38
2023-03-23T21:56:11.206Z,100252.75
2023-03-23T21:58:38.770Z,100253.91
2023-03-23T22:01:06.138Z,100250.59
2023-03-23T22:03:35.447Z,100242.59
2023-03-23T22:06:27.091Z,100236.22
2023-03-23T22:08:55.191Z,100238.00
2023-03-23T22:11:25.979Z,100226.81
2023-03-23T22:13:54.664Z,100223.25
2023-03-23T22:16:23.587Z,100222.97
2023-03-23T22:18:52.534Z,100206.50
2023-03-23T22:21:22.209Z,100221.03
2023-03-23T22:23:49.749Z,100203.72
2023-03-23T22:26:16.829Z,100200.94
2023-03-23T22:28:46.535Z,100197.34
2023-03-23T22:31:21.539Z,100192.78
2023-03-23T22:33:49.763Z,100192.09
2023-03-23T22:36:17.840Z,100168.72
2023-03-23T22:38:47.113Z,100178.50
2023-03-23T22:41:23.342Z,100174.03
2023-03-23T22:43:50.373Z,100176.19
2023-03-23T22:46:18.343Z,100163.59
2023-03-23T22:48:45.945Z,100161.75
2023-03-23T22:51:17.527Z,100159.66
2023-03-23T22:53:45.473Z,100150.16
2023-03-23T22:56:13.145Z,100150.03
2023-03-23T22:58:40.220Z,100120.00
2023-03-23T23:01:12.020Z,100142.28
2023-03-23T23:03:40.582Z,100132.50
2023-03-23T23:06:08.380Z,100125.91
2023-03-23T23:08:35.412Z,100117.38
2023-03-23T23:11:04.214Z,100079.13
2023-03-23T23:13:36.667Z,100119.41
2023-03-23T23:16:03.798Z,100116.50
2023-03-23T23:18:33.367Z,100104.69
2023-03-23T23:21:04.722Z,100093.91
2023-03-23T23:23:32.029Z,100095.47
2023-03-23T23:25:59.095Z,100085.66
2023-03-23T23:28:26.902Z,100075.91
2023-03-23T23:30:54.223Z,100081.63
2023-03-23T23:33:22.405Z,100071.13
2023-03-23T23:35:49.964Z,100082.03
2023-03-23T23:38:17.310Z,100074.16
2023-03-23T23:40:46.390Z,100068.94
2023-03-23T23:43:15.505Z,100072.69
2023-03-23T23:45:43.427Z,100072.00
2023-03-23T23:48:10.955Z,100075.94
2023-03-23T23:50:38.124Z,100072.88
2023-03-23T23:53:05.181Z,100067.53
2023-03-23T23:55:33.249Z,100052.91
2023-03-23T23:58:00.235Z,100064.66
